createdAt,value
2019-01-21T00:00:17.600Z,17.67
2019-01-21T00:02:46.222Z,16.63
2019-01-21T00:05:14.761Z,15.27
2019-01-21T00:07:43.442Z,14.77
2019-01-21T00:10:12.281Z,16.80
2019-01-21T00:12:40.783Z,16.43
2019-01-21T00:15:09.866Z,14.80
2019-01-21T00:17:38.382Z,15.73
2019-01-21T00:20:07.759Z,14.93
2019-01-21T00:22:36.169Z,14.80
2019-01-21T00:25:06.582Z,14.80
2019-01-21T00:27:35.309Z,15.37
2019-01-21T00:30:05.669Z,15.30
2019-01-21T00:32:34.398Z,14.63
2019-01-21T00:35:03.247Z,15.03
2019-01-21T00:37:31.990Z,14.20
2019-01-21T00:40:00.744Z,14.53
2019-01-21T00:42:29.524Z,14.50
2019-01-21T00:44:58.212Z,14.10
2019-01-21T00:47:30.073Z,15.10
2019-01-21T00:49:57.213Z,15.93
2019-01-21T00:52:26.799Z,14.33
2019-01-21T00:54:55.516Z,15.23
2019-01-21T00:57:24.024Z,14.83
2019-01-21T00:59:52.760Z,15.37
2019-01-21T01:02:21.305Z,14.97
2019-01-21T01:04:50.010Z,14.17
2019-01-21T01:07:18.517Z,15.33
2019-01-21T01:09:47.334Z,16.13
2019-01-21T01:12:16.069Z,14.07
2019-01-21T01:14:44.737Z,15.63
2019-01-21T01:17:13.189Z,14.67
2019-01-21T01:19:41.866Z,13.20
2019-01-21T01:22:10.553Z,15.50
2019-01-21T01:24:39.326Z,16.33
2019-01-21T01:27:07.766Z,15.60
2019-01-21T01:29:36.744Z,16.23
2019-01-21T01:32:05.575Z,16.83
2019-01-21T01:34:34.224Z,16.77
2019-01-21T01:37:02.633Z,14.93
2019-01-21T01:39:31.098Z,15.43
2019-01-21T01:41:59.845Z,16.20
2019-01-21T01:44:28.549Z,16.23
2019-01-21T01:46:57.030Z,15.03
2019-01-21T01:49:25.447Z,16.20
2019-01-21T01:51:53.863Z,15.27
2019-01-21T01:54:22.621Z,14.77
2019-01-21T01:56:51.048Z,16.10
2019-01-21T01:59:19.548Z,15.57
2019-01-21T02:01:48.006Z,15.17
2019-01-21T02:04:16.492Z,16.47
2019-01-21T02:06:44.948Z,15.50
2019-01-21T02:09:14.630Z,15.50
2019-01-21T02:11:43.352Z,17.53
2019-01-21T02:14:11.881Z,15.73
2019-01-21T02:16:40.583Z,16.37
2019-01-21T02:19:09.013Z,17.10
2019-01-21T02:21:38.485Z,16.17
2019-01-21T02:24:07.469Z,15.97
2019-01-21T02:26:39.247Z,15.47
2019-01-21T02:29:11.470Z,17.27
2019-01-21T02:31:59.676Z,16.73
2019-01-21T02:34:34.367Z,16.13
2019-01-21T02:37:11.598Z,16.43
2019-01-21T02:39:51.840Z,16.40
2019-01-21T02:42:35.067Z,16.40
2019-01-21T02:45:35.208Z,15.90
2019-01-21T02:48:09.449Z,17.47
2019-01-21T02:50:43.955Z,15.60
2019-01-21T02:53:33.797Z,14.50
2019-01-21T02:56:20.199Z,16.40
2019-01-21T02:59:09.089Z,15.50
2019-01-21T03:01:46.669Z,15.87
2019-01-21T03:04:33.082Z,16.43
2019-01-21T03:07:07.470Z,15.80
2019-01-21T03:09:47.973Z,16.97
2019-01-21T03:12:37.636Z,18.43
2019-01-21T03:15:31.566Z,15.17
2019-01-21T03:18:24.292Z,16.63
2019-01-21T03:21:14.214Z,15.30
2019-01-21T03:24:08.297Z,16.50
2019-01-21T03:26:48.816Z,15.33
2019-01-21T03:29:23.276Z,15.73
2019-01-21T03:32:12.937Z,15.53
2019-01-21T03:34:58.936Z,16.30
2019-01-21T03:37:45.127Z,15.67
2019-01-21T03:40:28.430Z,16.17
2019-01-21T03:43:11.553Z,15.70
2019-01-21T03:45:46.449Z,15.40
2019-01-21T03:48:17.991Z,18.20
2019-01-21T03:50:55.179Z,16.27
2019-01-21T03:53:38.692Z,16.23
2019-01-21T03:56:09.241Z,18.27
2019-01-21T03:58:46.439Z,16.37
2019-01-21T04:01:23.990Z,16.17
2019-01-21T04:04:07.359Z,15.60
2019-01-21T04:06:38.986Z,15.40
2019-01-21T04:09:19.237Z,15.90
2019-01-21T04:11:59.666Z,16.20
2019-01-21T04:14:52.155Z,16.60
2019-01-21T04:17:45.947Z,15.77
2019-01-21T04:20:19.849Z,15.97
2019-01-21T04:23:16.918Z,17.03
2019-01-21T04:25:48.406Z,13.70
2019-01-21T04:28:25.764Z,17.03
2019-01-21T04:31:05.957Z,14.93
2019-01-21T04:33:40.423Z,17.90
2019-01-21T04:36:17.822Z,14.90
2019-01-21T04:39:04.518Z,18.00
2019-01-21T04:41:38.678Z,18.10
2019-01-21T04:44:16.482Z,18.20
2019-01-21T04:46:53.406Z,17.07
2019-01-21T04:49:28.659Z,16.43
2019-01-21T04:52:28.506Z,14.60
2019-01-21T04:55:21.231Z,14.87
2019-01-21T04:57:58.780Z,14.00
2019-01-21T05:01:03.859Z,16.30
2019-01-21T05:03:54.707Z,14.13
2019-01-21T05:06:58.953Z,15.37
2019-01-21T05:09:45.173Z,17.67
2019-01-21T05:12:19.570Z,16.20
2019-01-21T05:15:10.433Z,14.53
2019-01-21T05:17:42.335Z,15.40
2019-01-21T05:20:45.656Z,17.23
2019-01-21T05:23:17.526Z,15.97
2019-01-21T05:26:08.117Z,17.30
2019-01-21T05:28:39.687Z,16.27
2019-01-21T05:31:32.628Z,16.87
2019-01-21T05:34:07.118Z,15.63
2019-01-21T05:36:47.156Z,16.70
2019-01-21T05:39:33.846Z,16.40
2019-01-21T05:42:33.683Z,16.13
2019-01-21T05:45:17.098Z,15.10
2019-01-21T05:48:04.668Z,14.93
2019-01-21T05:50:47.974Z,17.10
2019-01-21T05:53:22.057Z,15.80
2019-01-21T05:56:10.204Z,15.53
2019-01-21T05:58:56.835Z,16.57
2019-01-21T06:02:04.270Z,14.80
2019-01-21T06:04:38.726Z,15.80
2019-01-21T06:07:34.146Z,16.17
2019-01-21T06:10:08.127Z,16.57
2019-01-21T06:12:57.747Z,17.43
2019-01-21T06:15:44.196Z,15.33
2019-01-21T06:18:19.614Z,14.90
2019-01-21T06:21:25.880Z,14.57
2019-01-21T06:24:00.521Z,14.57
2019-01-21T06:26:32.006Z,15.40
2019-01-21T06:29:09.206Z,14.20
2019-01-21T06:31:46.944Z,15.40
2019-01-21T06:34:30.146Z,14.40
2019-01-21T06:37:16.538Z,15.20
2019-01-21T06:39:54.031Z,15.50
2019-01-21T06:42:25.790Z,15.93
2019-01-21T06:45:00.391Z,16.20
2019-01-21T06:47:52.750Z,16.60
2019-01-21T06:50:38.953Z,14.23
2019-01-21T06:53:30.599Z,16.73
2019-01-21T06:56:07.687Z,15.50
2019-01-21T06:58:40.364Z,15.70
2019-01-21T07:01:37.613Z,16.00
2019-01-21T07:04:25.798Z,15.10
2019-01-21T07:07:21.913Z,15.43
2019-01-21T07:10:08.404Z,14.37
2019-01-21T07:12:56.327Z,14.63
2019-01-21T07:15:48.638Z,15.80
2019-01-21T07:18:20.259Z,15.87
2019-01-21T07:21:11.346Z,15.50
2019-01-21T07:23:55.080Z,16.13
2019-01-21T07:26:32.419Z,15.70
2019-01-21T07:29:24.730Z,15.47
2019-01-21T07:31:59.319Z,15.07
2019-01-21T07:34:39.813Z,14.90
2019-01-21T07:37:23.257Z,16.80
2019-01-21T07:40:03.651Z,16.70
2019-01-21T07:42:40.952Z,16.40
2019-01-21T07:45:27.355Z,15.73
2019-01-21T07:48:16.855Z,15.53
2019-01-21T07:50:54.204Z,16.20
2019-01-21T07:53:37.627Z,15.87
2019-01-21T07:56:37.521Z,17.53
2019-01-21T07:59:14.687Z,16.60
2019-01-21T08:02:07.105Z,15.50
2019-01-21T08:04:50.666Z,16.57
2019-01-21T08:07:38.850Z,16.40
2019-01-21T08:10:40.422Z,16.60
2019-01-21T08:13:42.420Z,18.90
2019-01-21T08:16:34.649Z,15.37
2019-01-21T08:19:24.455Z,17.17
2019-01-21T08:22:14.117Z,16.07
2019-01-21T08:24:51.652Z,16.17
2019-01-21T08:27:39.528Z,16.57
2019-01-21T08:30:17.147Z,17.30
2019-01-21T08:33:03.613Z,17.90
2019-01-21T08:35:35.187Z,17.03
2019-01-21T08:38:06.721Z,17.30
2019-01-21T08:40:57.921Z,17.00
2019-01-21T08:43:44.642Z,17.77
2019-01-21T08:46:16.412Z,18.93
2019-01-21T08:48:57.000Z,17.47
2019-01-21T08:51:43.640Z,15.10
2019-01-21T08:54:32.832Z,14.80
2019-01-21T08:57:38.375Z,15.40
2019-01-21T09:00:18.723Z,15.23
2019-01-21T09:03:05.536Z,17.43
2019-01-21T09:06:06.947Z,16.80
2019-01-21T09:09:04.535Z,17.30
2019-01-21T09:11:57.036Z,14.50
2019-01-21T09:14:49.371Z,15.30
2019-01-21T09:17:26.525Z,16.13
2019-01-21T09:20:10.990Z,16.60
2019-01-21T09:22:42.521Z,14.23
2019-01-21T09:25:34.529Z,15.20
2019-01-21T09:28:22.541Z,15.20
2019-01-21T09:31:00.278Z,14.97
2019-01-21T09:33:37.404Z,14.70
2019-01-21T09:36:24.036Z,16.97
2019-01-21T09:39:10.524Z,17.10
2019-01-21T09:41:47.841Z,16.27
2019-01-21T09:44:28.202Z,16.27
2019-01-21T09:46:55.819Z,16.50
2019-01-21T09:49:23.136Z,16.80
2019-01-21T09:51:53.694Z,16.97
2019-01-21T09:54:23.035Z,16.83
2019-01-21T09:56:54.253Z,17.87
2019-01-21T09:59:24.097Z,14.27
2019-01-21T10:01:55.898Z,16.30
2019-01-21T10:04:30.495Z,16.40
2019-01-21T10:07:13.928Z,17.80
2019-01-21T10:09:45.704Z,16.43
2019-01-21T10:12:24.390Z,17.23
2019-01-21T10:15:05.031Z,16.70
2019-01-21T10:17:36.827Z,16.40
2019-01-21T10:20:38.294Z,16.50
2019-01-21T10:23:18.690Z,15.07
2019-01-21T10:26:07.821Z,15.73
2019-01-21T10:28:42.377Z,15.93
2019-01-21T10:31:29.145Z,15.13
2019-01-21T10:34:18.349Z,15.07
2019-01-21T10:37:06.433Z,13.77
2019-01-21T10:39:56.145Z,13.07
2019-01-21T10:42:33.546Z,13.07
2019-01-21T10:45:10.960Z,14.10
2019-01-21T10:47:45.123Z,15.10
2019-01-21T10:50:19.554Z,13.57
2019-01-21T10:53:25.649Z,13.47
2019-01-21T10:56:06.037Z,15.00
2019-01-21T10:58:43.949Z,15.70
2019-01-21T11:01:33.488Z,15.27
2019-01-21T11:04:11.322Z,15.30
2019-01-21T11:07:06.962Z,16.43
2019-01-21T11:10:01.596Z,17.47
2019-01-21T11:12:48.041Z,15.47
2019-01-21T11:15:28.621Z,15.03
2019-01-21T11:18:03.330Z,15.20
2019-01-21T11:20:34.805Z,15.07
2019-01-21T11:23:12.182Z,17.80
2019-01-21T11:26:15.465Z,16.13
2019-01-21T11:29:04.100Z,14.80
2019-01-21T11:31:35.572Z,15.00
2019-01-21T11:34:12.715Z,16.47
2019-01-21T11:36:55.897Z,16.27
2019-01-21T11:39:48.363Z,15.63
2019-01-21T11:42:37.949Z,15.97
2019-01-21T11:45:28.660Z,17.20
2019-01-21T11:48:14.778Z,17.77
2019-01-21T11:51:01.412Z,15.97
2019-01-21T11:53:32.876Z,16.23
2019-01-21T11:56:20.912Z,17.60
2019-01-21T11:58:57.997Z,16.37
2019-01-21T12:01:38.489Z,16.87
2019-01-21T12:04:12.984Z,16.97
2019-01-21T12:06:44.525Z,30.23
2019-01-21T12:09:18.949Z,46.97
2019-01-21T12:11:59.421Z,24.30
2019-01-21T12:14:37.394Z,19.47
2019-01-21T12:17:15.037Z,16.63
2019-01-21T12:20:16.856Z,19.07
2019-01-21T12:23:10.764Z,18.07
2019-01-21T12:25:54.104Z,17.30
2019-01-21T12:28:52.701Z,17.00
2019-01-21T12:31:26.985Z,18.07
2019-01-21T12:34:01.417Z,19.93
2019-01-21T12:36:35.776Z,17.30
2019-01-21T12:39:16.582Z,19.50
2019-01-21T12:41:51.065Z,16.50
2019-01-21T12:44:40.813Z,16.83
2019-01-21T12:47:21.194Z,16.37
2019-01-21T12:50:10.879Z,16.23
2019-01-21T12:52:45.478Z,16.97
2019-01-21T12:55:44.436Z,16.97
2019-01-21T12:58:30.795Z,19.00
2019-01-21T13:01:08.231Z,16.63
2019-01-21T13:03:51.808Z,19.00
2019-01-21T13:06:39.566Z,18.70
2019-01-21T13:09:30.509Z,18.70
2019-01-21T13:12:14.366Z,16.00
2019-01-21T13:14:52.016Z,18.67
2019-01-21T13:17:26.821Z,17.77
2019-01-21T13:20:04.129Z,16.20
2019-01-21T13:22:51.538Z,17.93
2019-01-21T13:25:26.040Z,18.73
2019-01-21T13:27:57.795Z,17.40
2019-01-21T13:30:31.990Z,16.63
2019-01-21T13:33:06.301Z,16.60
2019-01-21T13:35:46.159Z,17.43
2019-01-21T13:38:35.665Z,26.47
2019-01-21T13:41:12.644Z,20.10
2019-01-21T13:43:50.414Z,19.80
2019-01-21T13:46:36.829Z,16.33
2019-01-21T13:49:25.495Z,17.33
2019-01-21T13:52:14.365Z,18.33
2019-01-21T13:54:48.826Z,16.87
2019-01-21T13:57:56.478Z,17.37
2019-01-21T14:00:39.863Z,16.43
2019-01-21T14:03:11.349Z,15.80
2019-01-21T14:06:03.584Z,17.50
2019-01-21T14:08:37.757Z,18.00
2019-01-21T14:11:20.993Z,19.20
2019-01-21T14:13:55.629Z,16.93
2019-01-21T14:16:37.626Z,16.93
2019-01-21T14:19:09.474Z,17.10
2019-01-21T14:21:49.828Z,18.27
2019-01-21T14:24:39.172Z,15.27
2019-01-21T14:27:16.542Z,16.33
2019-01-21T14:29:56.895Z,15.50
2019-01-21T14:32:28.661Z,16.43
2019-01-21T14:35:02.632Z,17.20
2019-01-21T14:37:39.723Z,16.07
2019-01-21T14:40:19.975Z,17.10
2019-01-21T14:43:08.467Z,18.57
2019-01-21T14:46:02.026Z,17.20
2019-01-21T14:48:42.211Z,18.60
2019-01-21T14:51:28.806Z,18.53
2019-01-21T14:54:16.834Z,18.77
2019-01-21T14:57:09.325Z,19.40
2019-01-21T14:59:43.784Z,18.13
2019-01-21T15:02:15.371Z,18.37
2019-01-21T15:04:47.143Z,17.47
2019-01-21T15:07:18.899Z,17.63
2019-01-21T15:10:07.003Z,18.60
2019-01-21T15:12:44.202Z,19.37
2019-01-21T15:15:24.665Z,16.77
2019-01-21T15:18:20.507Z,19.03
2019-01-21T15:21:07.077Z,18.50
2019-01-21T15:23:56.306Z,19.50
2019-01-21T15:26:39.777Z,18.10
2019-01-21T15:29:41.341Z,17.43
2019-01-21T15:32:29.436Z,26.23
2019-01-21T15:35:06.736Z,25.30
2019-01-21T15:38:01.957Z,22.37
2019-01-21T15:40:54.466Z,21.70
2019-01-21T15:43:28.962Z,20.10
2019-01-21T15:46:00.564Z,20.33
2019-01-21T15:48:32.033Z,18.73
2019-01-21T15:51:06.554Z,18.17
2019-01-21T15:53:47.217Z,20.83
2019-01-21T15:56:24.999Z,20.27
2019-01-21T15:58:56.742Z,21.10
2019-01-21T16:01:49.180Z,20.40
2019-01-21T16:04:23.376Z,19.83
2019-01-21T16:07:18.060Z,20.70
2019-01-21T16:09:52.360Z,20.50
2019-01-21T16:12:43.515Z,23.70
2019-01-21T16:15:27.192Z,22.77
2019-01-21T16:18:19.669Z,22.07
2019-01-21T16:21:12.747Z,23.30
2019-01-21T16:24:01.636Z,21.97
2019-01-21T16:26:33.409Z,19.77
2019-01-21T16:29:07.637Z,20.70
2019-01-21T16:31:36.493Z,20.27
2019-01-21T16:34:22.949Z,20.63
2019-01-21T16:37:00.168Z,19.90
2019-01-21T16:39:34.682Z,23.07
2019-01-21T16:42:14.294Z,19.53
2019-01-21T16:44:44.567Z,19.13
2019-01-21T16:47:13.499Z,20.80
2019-01-21T16:49:42.219Z,22.30
2019-01-21T16:52:10.800Z,20.73
2019-01-21T16:54:39.418Z,22.17
2019-01-21T16:57:08.054Z,19.20
2019-01-21T16:59:36.724Z,20.40
2019-01-21T17:02:05.420Z,19.93
2019-01-21T17:04:34.063Z,21.90
2019-01-21T17:07:02.809Z,26.00
2019-01-21T17:09:31.236Z,30.57
2019-01-21T17:11:59.821Z,30.20
2019-01-21T17:14:28.465Z,31.37
2019-01-21T17:16:56.955Z,31.77
2019-01-21T17:19:25.345Z,27.63
2019-01-21T17:21:53.766Z,28.60
2019-01-21T17:24:22.167Z,26.63
2019-01-21T17:26:51.019Z,30.37
2019-01-21T17:29:20.032Z,26.37
2019-01-21T17:31:48.465Z,26.20
2019-01-21T17:34:17.210Z,26.67
2019-01-21T17:36:46.056Z,26.30
2019-01-21T17:39:14.595Z,25.87
2019-01-21T17:41:43.344Z,24.37
2019-01-21T17:44:11.977Z,24.30
2019-01-21T17:46:40.528Z,24.17
2019-01-21T17:49:08.976Z,24.50
2019-01-21T17:51:37.942Z,24.50
2019-01-21T17:54:06.901Z,22.03
2019-01-21T17:56:35.750Z,24.60
2019-01-21T17:59:07.316Z,25.37
2019-01-21T18:01:39.222Z,24.70
2019-01-21T18:04:06.059Z,23.30
2019-01-21T18:06:34.946Z,23.10
2019-01-21T18:09:04.974Z,25.50
2019-01-21T18:11:33.743Z,25.60
2019-01-21T18:14:02.907Z,25.77
2019-01-21T18:16:31.366Z,27.33
2019-01-21T18:18:59.960Z,23.50
2019-01-21T18:21:28.488Z,23.63
2019-01-21T18:23:57.641Z,24.37
2019-01-21T18:26:26.473Z,24.97
2019-01-21T18:28:55.514Z,24.63
2019-01-21T18:31:24.285Z,25.33
2019-01-21T18:33:52.807Z,22.03
2019-01-21T18:36:21.410Z,22.67
2019-01-21T18:38:50.069Z,21.13
2019-01-21T18:41:18.944Z,24.20
2019-01-21T18:43:47.690Z,23.90
2019-01-21T18:46:16.464Z,25.87
2019-01-21T18:48:45.325Z,26.27
2019-01-21T18:51:14.289Z,24.90
2019-01-21T18:53:42.861Z,23.80
2019-01-21T18:56:11.706Z,23.93
2019-01-21T18:58:41.394Z,23.20
2019-01-21T19:01:09.925Z,23.20
2019-01-21T19:03:38.467Z,23.83
2019-01-21T19:06:07.123Z,21.77
2019-01-21T19:08:35.581Z,24.70
2019-01-21T19:11:04.653Z,24.10
2019-01-21T19:13:33.451Z,24.97
2019-01-21T19:16:02.265Z,25.40
2019-01-21T19:18:30.784Z,25.00
2019-01-21T19:20:59.664Z,23.73
2019-01-21T19:23:28.433Z,24.00
2019-01-21T19:25:57.088Z,26.83
2019-01-21T19:28:26.210Z,27.70
2019-01-21T19:30:54.949Z,23.90
2019-01-21T19:33:23.598Z,24.17
2019-01-21T19:35:52.902Z,26.80
2019-01-21T19:38:21.691Z,24.17
2019-01-21T19:40:50.573Z,23.17
2019-01-21T19:43:19.665Z,25.37
2019-01-21T19:45:48.368Z,46.17
2019-01-21T19:48:17.134Z,38.87
2019-01-21T19:50:46.175Z,30.37
2019-01-21T19:53:16.356Z,31.37
2019-01-21T19:55:45.130Z,27.57
2019-01-21T19:58:13.667Z,21.80
2019-01-21T20:00:42.829Z,20.93
2019-01-21T20:03:11.745Z,24.53
2019-01-21T20:05:40.734Z,23.90
2019-01-21T20:08:09.387Z,23.60
2019-01-21T20:10:39.173Z,22.57
2019-01-21T20:13:07.957Z,23.60
2019-01-21T20:15:36.723Z,21.47
2019-01-21T20:18:06.173Z,21.77
2019-01-21T20:20:37.614Z,20.87
2019-01-21T20:23:06.396Z,19.90
2019-01-21T20:25:35.169Z,19.90
2019-01-21T20:28:04.034Z,22.63
2019-01-21T20:30:32.876Z,23.70
2019-01-21T20:33:02.630Z,24.23
2019-01-21T20:35:31.656Z,21.57
2019-01-21T20:38:00.373Z,24.23
2019-01-21T20:40:30.126Z,24.20
2019-01-21T20:42:58.940Z,25.37
2019-01-21T20:45:27.690Z,26.57
2019-01-21T20:47:56.302Z,28.00
2019-01-21T20:50:27.560Z,28.70
2019-01-21T20:52:56.684Z,28.00
2019-01-21T20:55:25.467Z,25.47
2019-01-21T20:57:54.408Z,26.20
2019-01-21T21:00:25.374Z,23.20
2019-01-21T21:02:55.123Z,25.43
2019-01-21T21:05:23.810Z,27.60
2019-01-21T21:07:52.513Z,22.97
2019-01-21T21:10:21.382Z,27.43
2019-01-21T21:12:50.190Z,29.20
2019-01-21T21:15:20.989Z,30.10
2019-01-21T21:17:49.702Z,30.67
2019-01-21T21:20:18.606Z,28.17
2019-01-21T21:22:47.435Z,29.60
2019-01-21T21:25:18.124Z,25.80
2019-01-21T21:27:49.199Z,26.73
2019-01-21T21:30:23.197Z,26.93
2019-01-21T21:32:51.705Z,29.00
2019-01-21T21:35:21.036Z,24.40
2019-01-21T21:37:50.810Z,26.07
2019-01-21T21:40:21.241Z,25.87
2019-01-21T21:42:51.041Z,26.70
2019-01-21T21:45:21.336Z,27.57
2019-01-21T21:47:51.467Z,26.47
2019-01-21T21:50:28.250Z,23.87
2019-01-21T21:52:57.404Z,25.47
2019-01-21T21:55:25.995Z,23.10
2019-01-21T21:57:54.622Z,25.20
2019-01-21T22:00:27.892Z,22.33
2019-01-21T22:02:57.198Z,24.20
2019-01-21T22:05:25.990Z,23.40
2019-01-21T22:07:54.573Z,22.57
2019-01-21T22:10:25.460Z,23.40
2019-01-21T22:12:54.657Z,25.00
2019-01-21T22:15:24.970Z,22.37
2019-01-21T22:17:53.547Z,22.23
2019-01-21T22:20:23.591Z,22.43
2019-01-21T22:22:52.481Z,22.90
2019-01-21T22:25:21.404Z,23.90
2019-01-21T22:27:50.040Z,21.60
2019-01-21T22:30:23.548Z,23.67
2019-01-21T22:32:52.365Z,22.70
2019-01-21T22:35:21.023Z,21.90
2019-01-21T22:37:50.351Z,22.10
2019-01-21T22:40:20.660Z,21.70
2019-01-21T22:42:49.690Z,24.40
2019-01-21T22:45:19.748Z,21.40
2019-01-21T22:47:48.599Z,23.17
2019-01-21T22:50:18.505Z,22.10
2019-01-21T22:52:47.075Z,24.07
2019-01-21T22:55:17.084Z,22.00
2019-01-21T22:57:45.728Z,21.03
2019-01-21T23:00:17.890Z,22.60
2019-01-21T23:02:46.687Z,20.67
2019-01-21T23:05:15.535Z,21.90
2019-01-21T23:07:44.058Z,19.90
2019-01-21T23:10:13.028Z,21.60
2019-01-21T23:12:41.994Z,20.60
2019-01-21T23:15:12.059Z,23.33
2019-01-21T23:17:40.601Z,20.67
2019-01-21T23:20:11.056Z,20.93
2019-01-21T23:22:39.649Z,22.23
2019-01-21T23:25:08.502Z,21.30
2019-01-21T23:27:37.472Z,19.97
2019-01-21T23:30:22.836Z,19.97
2019-01-21T23:32:51.496Z,20.17
2019-01-21T23:35:20.252Z,19.37
2019-01-21T23:37:48.947Z,20.40
2019-01-21T23:40:17.613Z,21.20
2019-01-21T23:42:46.155Z,17.97
2019-01-21T23:45:14.995Z,22.37
2019-01-21T23:47:43.623Z,18.97
2019-01-21T23:50:16.940Z,19.17
2019-01-21T23:52:45.450Z,20.10
2019-01-21T23:55:14.526Z,21.73
2019-01-21T23:57:43.354Z,21.90
